Terminal Aerodrome Forecast
Issued by NWS Wilmington, NC

Home | Current Version | Previous Version | Text Only | Print | Product List | Glossary On
Versions: 1 2 3 4 5 6 7 8 9 10 11 12 13 14 15
000
FTUS42 KILM 281100
TAFMYR
TAF
KMYR 281124Z 2812/2912 25010KT P6SM SCT200
     FM281330 25012G18KT P6SM FEW040 SCT200
     FM281800 23014G20KT P6SM VCTS SCT040CB BKN200
      TEMPO 2820/2824 VRB20G40KT 1SM +TSRA BKN030CB
     FM290200 26008KT P6SM BKN045 BKN250
     FM290800 35006KT P6SM SCT050=

USA.gov is the U.S. government's official web portal to all federal, state and local government web resources and services.